sensor_id;sensor_type;location;lat;lon;timestamp;P1;durP1;ratioP1;P2;durP2;ratioP2
67762;SDS011;54566;52.022;5.582;2023-08-01T00:02:24;7.47;;;3.17;;
67762;SDS011;54566;52.022;5.582;2023-08-01T00:04:50;7.97;;;2.72;;
67762;SDS011;54566;52.022;5.582;2023-08-01T00:07:16;7.55;;;3.00;;
67762;SDS011;54566;52.022;5.582;2023-08-01T00:09:42;10.40;;;3.00;;
67762;SDS011;54566;52.022;5.582;2023-08-01T00:12:08;7.82;;;2.88;;
67762;SDS011;54566;52.022;5.582;2023-08-01T00:14:35;10.68;;;2.78;;
67762;SDS011;54566;52.022;5.582;2023-08-01T00:17:01;10.70;;;2.88;;
67762;SDS011;54566;52.022;5.582;2023-08-01T00:19:27;7.07;;;2.90;;
67762;SDS011;54566;52.022;5.582;2023-08-01T00:21:53;13.23;;;3.00;;
67762;SDS011;54566;52.022;5.582;2023-08-01T00:24:19;6.00;;;2.80;;
67762;SDS011;54566;52.022;5.582;2023-08-01T00:26:45;10.48;;;2.63;;
67762;SDS011;54566;52.022;5.582;2023-08-01T00:29:12;7.00;;;2.50;;
67762;SDS011;54566;52.022;5.582;2023-08-01T00:31:38;11.65;;;3.03;;
67762;SDS011;54566;52.022;5.582;2023-08-01T00:34:04;7.70;;;2.75;;
67762;SDS011;54566;52.022;5.582;2023-08-01T00:36:30;8.32;;;2.55;;
67762;SDS011;54566;52.022;5.582;2023-08-01T00:38:57;6.45;;;2.60;;
67762;SDS011;54566;52.022;5.582;2023-08-01T00:41:23;11.90;;;2.83;;
67762;SDS011;54566;52.022;5.582;2023-08-01T00:43:49;6.40;;;2.60;;
67762;SDS011;54566;52.022;5.582;2023-08-01T00:46:15;11.05;;;2.30;;
67762;SDS011;54566;52.022;5.582;2023-08-01T00:48:41;8.88;;;3.20;;
67762;SDS011;54566;52.022;5.582;2023-08-01T00:51:07;7.35;;;2.65;;
67762;SDS011;54566;52.022;5.582;2023-08-01T00:53:34;11.80;;;3.08;;
67762;SDS011;54566;52.022;5.582;2023-08-01T00:56:01;7.20;;;2.67;;
67762;SDS011;54566;52.022;5.582;2023-08-01T00:58:27;7.13;;;2.67;;
67762;SDS011;54566;52.022;5.582;2023-08-01T01:00:53;10.25;;;3.05;;
67762;SDS011;54566;52.022;5.582;2023-08-01T01:03:20;8.68;;;3.10;;
67762;SDS011;54566;52.022;5.582;2023-08-01T01:05:52;11.85;;;2.95;;
67762;SDS011;54566;52.022;5.582;2023-08-01T01:08:19;13.55;;;3.72;;
67762;SDS011;54566;52.022;5.582;2023-08-01T01:10:45;13.93;;;4.22;;
67762;SDS011;54566;52.022;5.582;2023-08-01T01:13:11;11.73;;;4.30;;
67762;SDS011;54566;52.022;5.582;2023-08-01T01:15:37;14.00;;;4.18;;
67762;SDS011;54566;52.022;5.582;2023-08-01T01:18:03;15.95;;;4.47;;
67762;SDS011;54566;52.022;5.582;2023-08-01T01:20:33;14.07;;;5.25;;
67762;SDS011;54566;52.022;5.582;2023-08-01T01:23:00;13.68;;;6.28;;
67762;SDS011;54566;52.022;5.582;2023-08-01T01:25:27;13.55;;;6.90;;
67762;SDS011;54566;52.022;5.582;2023-08-01T01:27:53;14.45;;;6.00;;
67762;SDS011;54566;52.022;5.582;2023-08-01T01:30:20;17.17;;;6.90;;
67762;SDS011;54566;52.022;5.582;2023-08-01T01:32:46;11.88;;;6.38;;
67762;SDS011;54566;52.022;5.582;2023-08-01T01:35:12;12.93;;;6.05;;
67762;SDS011;54566;52.022;5.582;2023-08-01T01:37:38;20.08;;;6.47;;
67762;SDS011;54566;52.022;5.582;2023-08-01T01:40:04;17.70;;;6.05;;
67762;SDS011;54566;52.022;5.582;2023-08-01T01:42:30;12.70;;;5.93;;
67762;SDS011;54566;52.022;5.582;2023-08-01T01:44:56;19.13;;;6.60;;
67762;SDS011;54566;52.022;5.582;2023-08-01T01:47:22;16.33;;;6.80;;
67762;SDS011;54566;52.022;5.582;2023-08-01T01:49:48;27.13;;;8.05;;
67762;SDS011;54566;52.022;5.582;2023-08-01T01:52:14;21.35;;;7.53;;
67762;SDS011;54566;52.022;5.582;2023-08-01T01:54:40;16.83;;;7.60;;
67762;SDS011;54566;52.022;5.582;2023-08-01T01:57:06;27.88;;;7.55;;
67762;SDS011;54566;52.022;5.582;2023-08-01T01:59:32;18.17;;;6.75;;
67762;SDS011;54566;52.022;5.582;2023-08-01T02:01:58;23.42;;;7.75;;
67762;SDS011;54566;52.022;5.582;2023-08-01T02:04:24;27.85;;;7.38;;
67762;SDS011;54566;52.022;5.582;2023-08-01T02:06:50;20.90;;;7.03;;
67762;SDS011;54566;52.022;5.582;2023-08-01T02:09:19;20.05;;;6.40;;
67762;SDS011;54566;52.022;5.582;2023-08-01T02:11:45;22.58;;;7.18;;
67762;SDS011;54566;52.022;5.582;2023-08-01T02:14:11;18.55;;;6.30;;
67762;SDS011;54566;52.022;5.582;2023-08-01T02:16:37;15.63;;;6.55;;
67762;SDS011;54566;52.022;5.582;2023-08-01T02:19:03;20.08;;;6.40;;
67762;SDS011;54566;52.022;5.582;2023-08-01T02:21:29;17.67;;;6.55;;
67762;SDS011;54566;52.022;5.582;2023-08-01T02:23:55;26.52;;;6.40;;
67762;SDS011;54566;52.022;5.582;2023-08-01T02:26:21;24.00;;;6.45;;
67762;SDS011;54566;52.022;5.582;2023-08-01T02:28:49;15.13;;;6.25;;
67762;SDS011;54566;52.022;5.582;2023-08-01T02:31:15;21.77;;;6.57;;
67762;SDS011;54566;52.022;5.582;2023-08-01T02:33:41;25.38;;;6.43;;
67762;SDS011;54566;52.022;5.582;2023-08-01T02:36:07;20.50;;;6.85;;
67762;SDS011;54566;52.022;5.582;2023-08-01T02:38:33;19.65;;;6.05;;
67762;SDS011;54566;52.022;5.582;2023-08-01T02:40:59;21.20;;;5.93;;
67762;SDS011;54566;52.022;5.582;2023-08-01T02:43:25;32.75;;;6.55;;
67762;SDS011;54566;52.022;5.582;2023-08-01T02:45:51;24.45;;;5.75;;
67762;SDS011;54566;52.022;5.582;2023-08-01T02:48:17;19.05;;;5.28;;
67762;SDS011;54566;52.022;5.582;2023-08-01T02:50:43;26.00;;;6.15;;
67762;SDS011;54566;52.022;5.582;2023-08-01T02:53:10;24.20;;;5.63;;
67762;SDS011;54566;52.022;5.582;2023-08-01T02:55:36;23.98;;;5.65;;
67762;SDS011;54566;52.022;5.582;2023-08-01T02:58:03;22.83;;;5.53;;
67762;SDS011;54566;52.022;5.582;2023-08-01T03:00:29;31.98;;;5.88;;
67762;SDS011;54566;52.022;5.582;2023-08-01T03:02:56;21.35;;;5.00;;
67762;SDS011;54566;52.022;5.582;2023-08-01T03:05:22;17.42;;;5.15;;
67762;SDS011;54566;52.022;5.582;2023-08-01T03:07:48;23.48;;;5.10;;
67762;SDS011;54566;52.022;5.582;2023-08-01T03:10:14;19.33;;;4.80;;
67762;SDS011;54566;52.022;5.582;2023-08-01T03:12:40;24.77;;;5.43;;
67762;SDS011;54566;52.022;5.582;2023-08-01T03:15:07;31.50;;;4.97;;
67762;SDS011;54566;52.022;5.582;2023-08-01T03:17:34;22.10;;;5.07;;
67762;SDS011;54566;52.022;5.582;2023-08-01T03:20:00;15.45;;;4.93;;
67762;SDS011;54566;52.022;5.582;2023-08-01T03:22:26;25.42;;;4.70;;
67762;SDS011;54566;52.022;5.582;2023-08-01T03:24:52;21.02;;;4.75;;
67762;SDS011;54566;52.022;5.582;2023-08-01T03:27:18;19.23;;;4.28;;
67762;SDS011;54566;52.022;5.582;2023-08-01T03:29:44;21.30;;;4.85;;
67762;SDS011;54566;52.022;5.582;2023-08-01T03:32:10;23.38;;;4.65;;
67762;SDS011;54566;52.022;5.582;2023-08-01T03:34:35;21.98;;;4.00;;
67762;SDS011;54566;52.022;5.582;2023-08-01T03:37:04;19.58;;;4.20;;
67762;SDS011;54566;52.022;5.582;2023-08-01T03:39:30;16.92;;;4.10;;
67762;SDS011;54566;52.022;5.582;2023-08-01T03:41:56;18.00;;;3.90;;
67762;SDS011;54566;52.022;5.582;2023-08-01T03:44:22;21.52;;;4.07;;
67762;SDS011;54566;52.022;5.582;2023-08-01T03:46:48;17.17;;;4.18;;
67762;SDS011;54566;52.022;5.582;2023-08-01T03:49:14;17.95;;;3.80;;
67762;SDS011;54566;52.022;5.582;2023-08-01T03:51:40;14.68;;;3.92;;
67762;SDS011;54566;52.022;5.582;2023-08-01T03:54:06;18.08;;;4.05;;
67762;SDS011;54566;52.022;5.582;2023-08-01T03:56:32;15.85;;;4.05;;
67762;SDS011;54566;52.022;5.582;2023-08-01T03:58:58;15.55;;;3.80;;
67762;SDS011;54566;52.022;5.582;2023-08-01T04:01:24;16.40;;;4.25;;
67762;SDS011;54566;52.022;5.582;2023-08-01T04:03:50;15.40;;;4.05;;
67762;SDS011;54566;52.022;5.582;2023-08-01T04:06:16;18.00;;;4.10;;
67762;SDS011;54566;52.022;5.582;2023-08-01T04:08:42;23.23;;;4.70;;
67762;SDS011;54566;52.022;5.582;2023-08-01T04:11:08;20.45;;;4.28;;
67762;SDS011;54566;52.022;5.582;2023-08-01T04:13:36;18.83;;;4.20;;
67762;SDS011;54566;52.022;5.582;2023-08-01T04:16:02;20.38;;;4.43;;
67762;SDS011;54566;52.022;5.582;2023-08-01T04:18:28;14.20;;;4.47;;
67762;SDS011;54566;52.022;5.582;2023-08-01T04:20:54;21.08;;;4.40;;
67762;SDS011;54566;52.022;5.582;2023-08-01T04:23:20;15.45;;;4.07;;
67762;SDS011;54566;52.022;5.582;2023-08-01T04:25:46;20.98;;;4.78;;
67762;SDS011;54566;52.022;5.582;2023-08-01T04:28:12;18.85;;;4.20;;
67762;SDS011;54566;52.022;5.582;2023-08-01T04:30:38;20.67;;;4.63;;
67762;SDS011;54566;52.022;5.582;2023-08-01T04:33:04;18.05;;;4.60;;
67762;SDS011;54566;52.022;5.582;2023-08-01T04:35:30;14.55;;;4.10;;
67762;SDS011;54566;52.022;5.582;2023-08-01T04:37:56;21.70;;;4.90;;
67762;SDS011;54566;52.022;5.582;2023-08-01T04:40:22;19.90;;;4.78;;
67762;SDS011;54566;52.022;5.582;2023-08-01T04:42:48;19.23;;;4.72;;
67762;SDS011;54566;52.022;5.582;2023-08-01T04:45:14;15.13;;;4.88;;
67762;SDS011;54566;52.022;5.582;2023-08-01T04:47:40;14.35;;;5.25;;
67762;SDS011;54566;52.022;5.582;2023-08-01T04:50:06;15.10;;;4.75;;
67762;SDS011;54566;52.022;5.582;2023-08-01T04:52:32;23.55;;;5.28;;
67762;SDS011;54566;52.022;5.582;2023-08-01T04:54:58;18.92;;;4.68;;
67762;SDS011;54566;52.022;5.582;2023-08-01T04:57:24;22.80;;;5.10;;
67762;SDS011;54566;52.022;5.582;2023-08-01T04:59:52;24.13;;;5.07;;
67762;SDS011;54566;52.022;5.582;2023-08-01T05:02:18;19.17;;;4.78;;
67762;SDS011;54566;52.022;5.582;2023-08-01T05:04:44;18.77;;;4.65;;
67762;SDS011;54566;52.022;5.582;2023-08-01T05:07:10;16.38;;;4.82;;
67762;SDS011;54566;52.022;5.582;2023-08-01T05:09:36;23.23;;;5.13;;
67762;SDS011;54566;52.022;5.582;2023-08-01T05:12:02;26.40;;;5.20;;
67762;SDS011;54566;52.022;5.582;2023-08-01T05:14:28;19.02;;;4.60;;
67762;SDS011;54566;52.022;5.582;2023-08-01T05:16:54;18.58;;;4.75;;
67762;SDS011;54566;52.022;5.582;2023-08-01T05:19:20;24.73;;;5.10;;
67762;SDS011;54566;52.022;5.582;2023-08-01T05:21:46;19.17;;;5.50;;
67762;SDS011;54566;52.022;5.582;2023-08-01T05:24:12;15.80;;;4.70;;
67762;SDS011;54566;52.022;5.582;2023-08-01T05:26:38;20.30;;;5.10;;
67762;SDS011;54566;52.022;5.582;2023-08-01T05:29:03;21.45;;;4.90;;
67762;SDS011;54566;52.022;5.582;2023-08-01T05:31:29;15.32;;;4.45;;
67762;SDS011;54566;52.022;5.582;2023-08-01T05:33:56;14.80;;;4.03;;
67762;SDS011;54566;52.022;5.582;2023-08-01T05:36:22;17.13;;;4.80;;
67762;SDS011;54566;52.022;5.582;2023-08-01T05:38:48;14.77;;;4.60;;
67762;SDS011;54566;52.022;5.582;2023-08-01T05:41:13;20.30;;;5.88;;
67762;SDS011;54566;52.022;5.582;2023-08-01T05:43:39;25.55;;;5.30;;
67762;SDS011;54566;52.022;5.582;2023-08-01T05:46:06;20.45;;;5.40;;
67762;SDS011;54566;52.022;5.582;2023-08-01T05:48:32;19.30;;;4.72;;
67762;SDS011;54566;52.022;5.582;2023-08-01T05:50:58;20.50;;;4.93;;
67762;SDS011;54566;52.022;5.582;2023-08-01T05:53:24;14.90;;;4.93;;
67762;SDS011;54566;52.022;5.582;2023-08-01T05:55:50;15.48;;;4.40;;
67762;SDS011;54566;52.022;5.582;2023-08-01T05:58:16;17.30;;;4.95;;
67762;SDS011;54566;52.022;5.582;2023-08-01T06:00:42;16.30;;;4.82;;
67762;SDS011;54566;52.022;5.582;2023-08-01T06:03:08;20.50;;;4.70;;
67762;SDS011;54566;52.022;5.582;2023-08-01T06:05:35;16.52;;;4.65;;
67762;SDS011;54566;52.022;5.582;2023-08-01T06:08:02;24.23;;;5.53;;
67762;SDS011;54566;52.022;5.582;2023-08-01T06:10:28;13.13;;;4.50;;
67762;SDS011;54566;52.022;5.582;2023-08-01T06:12:54;16.33;;;4.28;;
67762;SDS011;54566;52.022;5.582;2023-08-01T06:15:20;23.13;;;4.93;;
67762;SDS011;54566;52.022;5.582;2023-08-01T06:17:47;22.30;;;4.72;;
67762;SDS011;54566;52.022;5.582;2023-08-01T06:20:13;18.35;;;4.50;;
67762;SDS011;54566;52.022;5.582;2023-08-01T06:22:39;17.52;;;4.85;;
67762;SDS011;54566;52.022;5.582;2023-08-01T06:25:05;21.60;;;4.50;;
67762;SDS011;54566;52.022;5.582;2023-08-01T06:27:31;12.93;;;4.25;;
67762;SDS011;54566;52.022;5.582;2023-08-01T06:29:57;19.30;;;4.50;;
67762;SDS011;54566;52.022;5.582;2023-08-01T06:32:23;18.08;;;4.00;;
67762;SDS011;54566;52.022;5.582;2023-08-01T06:34:49;19.02;;;4.65;;
67762;SDS011;54566;52.022;5.582;2023-08-01T06:37:15;18.23;;;4.60;;
67762;SDS011;54566;52.022;5.582;2023-08-01T06:39:41;22.92;;;4.05;;
67762;SDS011;54566;52.022;5.582;2023-08-01T06:42:07;14.35;;;3.50;;
67762;SDS011;54566;52.022;5.582;2023-08-01T06:44:33;16.73;;;3.60;;
67762;SDS011;54566;52.022;5.582;2023-08-01T06:46:59;20.33;;;3.80;;
67762;SDS011;54566;52.022;5.582;2023-08-01T06:49:25;13.15;;;4.40;;
67762;SDS011;54566;52.022;5.582;2023-08-01T06:51:51;12.27;;;4.50;;
67762;SDS011;54566;52.022;5.582;2023-08-01T06:54:17;16.38;;;3.50;;
67762;SDS011;54566;52.022;5.582;2023-08-01T06:56:43;20.92;;;4.40;;
67762;SDS011;54566;52.022;5.582;2023-08-01T06:59:13;17.90;;;3.25;;
67762;SDS011;54566;52.022;5.582;2023-08-01T07:01:40;13.73;;;3.53;;
67762;SDS011;54566;52.022;5.582;2023-08-01T07:04:08;12.98;;;3.33;;
67762;SDS011;54566;52.022;5.582;2023-08-01T07:06:34;13.13;;;4.47;;
67762;SDS011;54566;52.022;5.582;2023-08-01T07:09:00;12.18;;;3.63;;
67762;SDS011;54566;52.022;5.582;2023-08-01T07:11:26;15.35;;;4.30;;
67762;SDS011;54566;52.022;5.582;2023-08-01T07:13:52;17.73;;;4.00;;
67762;SDS011;54566;52.022;5.582;2023-08-01T07:16:18;15.65;;;3.80;;
67762;SDS011;54566;52.022;5.582;2023-08-01T07:18:44;18.40;;;3.88;;
67762;SDS011;54566;52.022;5.582;2023-08-01T07:21:10;14.32;;;3.50;;
67762;SDS011;54566;52.022;5.582;2023-08-01T07:23:36;14.15;;;3.67;;
67762;SDS011;54566;52.022;5.582;2023-08-01T07:26:02;18.00;;;3.05;;
67762;SDS011;54566;52.022;5.582;2023-08-01T07:28:28;13.88;;;3.20;;
67762;SDS011;54566;52.022;5.582;2023-08-01T07:30:58;6.10;;;2.65;;
67762;SDS011;54566;52.022;5.582;2023-08-01T07:33:24;12.10;;;3.22;;
67762;SDS011;54566;52.022;5.582;2023-08-01T07:35:50;13.98;;;3.22;;
67762;SDS011;54566;52.022;5.582;2023-08-01T07:38:16;17.35;;;4.03;;
67762;SDS011;54566;52.022;5.582;2023-08-01T07:40:42;12.50;;;2.92;;
67762;SDS011;54566;52.022;5.582;2023-08-01T07:43:08;11.82;;;3.10;;
67762;SDS011;54566;52.022;5.582;2023-08-01T07:45:34;13.60;;;3.22;;
67762;SDS011;54566;52.022;5.582;2023-08-01T07:48:00;19.60;;;3.95;;
67762;SDS011;54566;52.022;5.582;2023-08-01T07:50:26;11.52;;;2.85;;
67762;SDS011;54566;52.022;5.582;2023-08-01T07:52:52;15.73;;;2.90;;
67762;SDS011;54566;52.022;5.582;2023-08-01T07:55:18;10.57;;;3.22;;
67762;SDS011;54566;52.022;5.582;2023-08-01T07:57:46;14.20;;;2.60;;
67762;SDS011;54566;52.022;5.582;2023-08-01T08:00:12;11.45;;;2.55;;
67762;SDS011;54566;52.022;5.582;2023-08-01T08:02:38;11.57;;;2.80;;
67762;SDS011;54566;52.022;5.582;2023-08-01T08:05:04;11.43;;;3.03;;
67762;SDS011;54566;52.022;5.582;2023-08-01T08:07:30;12.52;;;3.33;;
67762;SDS011;54566;52.022;5.582;2023-08-01T08:09:57;10.43;;;2.80;;
67762;SDS011;54566;52.022;5.582;2023-08-01T08:12:23;18.30;;;3.20;;
67762;SDS011;54566;52.022;5.582;2023-08-01T08:14:49;18.02;;;3.13;;
67762;SDS011;54566;52.022;5.582;2023-08-01T08:17:15;10.18;;;3.03;;
67762;SDS011;54566;52.022;5.582;2023-08-01T08:19:41;8.52;;;2.95;;
67762;SDS011;54566;52.022;5.582;2023-08-01T08:22:07;9.20;;;2.55;;
67762;SDS011;54566;52.022;5.582;2023-08-01T08:24:33;11.90;;;2.88;;
67762;SDS011;54566;52.022;5.582;2023-08-01T08:26:59;9.50;;;2.70;;
67762;SDS011;54566;52.022;5.582;2023-08-01T08:29:25;9.20;;;2.40;;
67762;SDS011;54566;52.022;5.582;2023-08-01T08:31:51;8.57;;;2.70;;
67762;SDS011;54566;52.022;5.582;2023-08-01T08:34:17;11.80;;;2.53;;
67762;SDS011;54566;52.022;5.582;2023-08-01T08:36:43;9.90;;;2.58;;
67762;SDS011;54566;52.022;5.582;2023-08-01T08:39:09;16.45;;;3.38;;
67762;SDS011;54566;52.022;5.582;2023-08-01T08:41:37;11.10;;;2.80;;
67762;SDS011;54566;52.022;5.582;2023-08-01T08:44:05;14.95;;;2.70;;
67762;SDS011;54566;52.022;5.582;2023-08-01T08:46:33;11.60;;;2.20;;
67762;SDS011;54566;52.022;5.582;2023-08-01T08:48:59;6.95;;;2.20;;
67762;SDS011;54566;52.022;5.582;2023-08-01T08:51:28;10.10;;;2.10;;
67762;SDS011;54566;52.022;5.582;2023-08-01T08:53:56;9.52;;;2.88;;
67762;SDS011;54566;52.022;5.582;2023-08-01T08:56:22;7.53;;;2.27;;
67762;SDS011;54566;52.022;5.582;2023-08-01T08:58:49;11.57;;;2.28;;
67762;SDS011;54566;52.022;5.582;2023-08-01T09:01:15;4.68;;;1.58;;
67762;SDS011;54566;52.022;5.582;2023-08-01T09:03:43;9.43;;;2.10;;
67762;SDS011;54566;52.022;5.582;2023-08-01T09:06:12;4.05;;;1.70;;
67762;SDS011;54566;52.022;5.582;2023-08-01T09:08:40;7.00;;;2.05;;
67762;SDS011;54566;52.022;5.582;2023-08-01T09:11:11;9.43;;;2.00;;
67762;SDS011;54566;52.022;5.582;2023-08-01T09:13:37;8.13;;;2.13;;
67762;SDS011;54566;52.022;5.582;2023-08-01T09:16:03;10.95;;;2.05;;
67762;SDS011;54566;52.022;5.582;2023-08-01T09:18:32;16.15;;;2.05;;
67762;SDS011;54566;52.022;5.582;2023-08-01T09:20:58;7.22;;;1.90;;
67762;SDS011;54566;52.022;5.582;2023-08-01T09:23:29;13.88;;;2.00;;
67762;SDS011;54566;52.022;5.582;2023-08-01T09:25:55;5.35;;;1.98;;
67762;SDS011;54566;52.022;5.582;2023-08-01T09:28:22;11.07;;;2.47;;
67762;SDS011;54566;52.022;5.582;2023-08-01T09:30:52;9.65;;;1.75;;
67762;SDS011;54566;52.022;5.582;2023-08-01T09:33:22;7.72;;;1.98;;
67762;SDS011;54566;52.022;5.582;2023-08-01T09:35:49;8.50;;;2.28;;
67762;SDS011;54566;52.022;5.582;2023-08-01T09:38:15;8.85;;;1.90;;
67762;SDS011;54566;52.022;5.582;2023-08-01T09:40:42;6.97;;;2.13;;
67762;SDS011;54566;52.022;5.582;2023-08-01T09:43:09;8.43;;;2.00;;
67762;SDS011;54566;52.022;5.582;2023-08-01T09:45:35;9.45;;;2.13;;
67762;SDS011;54566;52.022;5.582;2023-08-01T09:48:01;13.82;;;2.63;;
67762;SDS011;54566;52.022;5.582;2023-08-01T09:50:28;11.45;;;2.38;;
67762;SDS011;54566;52.022;5.582;2023-08-01T09:52:54;7.63;;;1.83;;
67762;SDS011;54566;52.022;5.582;2023-08-01T09:57:49;11.75;;;2.30;;
67762;SDS011;54566;52.022;5.582;2023-08-01T10:00:16;9.85;;;1.90;;
67762;SDS011;54566;52.022;5.582;2023-08-01T10:02:42;8.40;;;2.30;;
67762;SDS011;54566;52.022;5.582;2023-08-01T10:05:09;12.90;;;2.35;;
67762;SDS011;54566;52.022;5.582;2023-08-01T10:07:35;11.02;;;2.38;;
67762;SDS011;54566;52.022;5.582;2023-08-01T10:10:04;7.45;;;2.22;;
67762;SDS011;54566;52.022;5.582;2023-08-01T10:12:31;7.80;;;2.15;;
67762;SDS011;54566;52.022;5.582;2023-08-01T10:14:57;8.80;;;2.10;;
67762;SDS011;54566;52.022;5.582;2023-08-01T10:17:23;10.80;;;1.80;;
67762;SDS011;54566;52.022;5.582;2023-08-01T10:19:51;6.65;;;1.83;;
67762;SDS011;54566;52.022;5.582;2023-08-01T10:22:18;8.63;;;1.92;;
67762;SDS011;54566;52.022;5.582;2023-08-01T10:24:44;7.70;;;2.05;;
67762;SDS011;54566;52.022;5.582;2023-08-01T10:27:15;5.75;;;1.90;;
67762;SDS011;54566;52.022;5.582;2023-08-01T10:29:44;7.07;;;2.15;;
67762;SDS011;54566;52.022;5.582;2023-08-01T10:32:11;9.15;;;2.15;;
67762;SDS011;54566;52.022;5.582;2023-08-01T10:34:37;7.40;;;2.33;;
67762;SDS011;54566;52.022;5.582;2023-08-01T10:37:03;8.32;;;2.35;;
67762;SDS011;54566;52.022;5.582;2023-08-01T10:39:29;6.97;;;2.20;;
67762;SDS011;54566;52.022;5.582;2023-08-01T10:44:25;9.55;;;2.28;;
67762;SDS011;54566;52.022;5.582;2023-08-01T10:46:55;6.00;;;1.92;;
67762;SDS011;54566;52.022;5.582;2023-08-01T10:52:01;10.45;;;2.17;;
67762;SDS011;54566;52.022;5.582;2023-08-01T10:54:27;9.13;;;1.98;;
67762;SDS011;54566;52.022;5.582;2023-08-01T10:56:55;12.30;;;2.30;;
67762;SDS011;54566;52.022;5.582;2023-08-01T10:59:23;10.55;;;2.65;;
67762;SDS011;54566;52.022;5.582;2023-08-01T11:01:50;6.65;;;2.40;;
67762;SDS011;54566;52.022;5.582;2023-08-01T11:06:43;10.52;;;2.00;;
67762;SDS011;54566;52.022;5.582;2023-08-01T11:09:24;7.90;;;2.10;;
67762;SDS011;54566;52.022;5.582;2023-08-01T11:11:52;7.68;;;2.13;;
67762;SDS011;54566;52.022;5.582;2023-08-01T11:14:19;8.60;;;1.70;;
67762;SDS011;54566;52.022;5.582;2023-08-01T11:16:46;8.93;;;1.98;;
67762;SDS011;54566;52.022;5.582;2023-08-01T11:19:19;6.15;;;1.85;;
67762;SDS011;54566;52.022;5.582;2023-08-01T11:21:46;4.97;;;1.83;;
67762;SDS011;54566;52.022;5.582;2023-08-01T11:24:12;9.02;;;1.80;;
67762;SDS011;54566;52.022;5.582;2023-08-01T11:26:44;7.70;;;1.90;;
67762;SDS011;54566;52.022;5.582;2023-08-01T11:29:11;6.82;;;1.60;;
67762;SDS011;54566;52.022;5.582;2023-08-01T11:31:38;9.43;;;1.65;;
67762;SDS011;54566;52.022;5.582;2023-08-01T11:34:04;7.28;;;2.00;;
67762;SDS011;54566;52.022;5.582;2023-08-01T11:36:30;9.43;;;2.30;;
67762;SDS011;54566;52.022;5.582;2023-08-01T11:38:57;11.90;;;1.73;;
67762;SDS011;54566;52.022;5.582;2023-08-01T11:41:24;9.83;;;1.93;;
67762;SDS011;54566;52.022;5.582;2023-08-01T11:43:50;8.77;;;2.05;;
67762;SDS011;54566;52.022;5.582;2023-08-01T11:46:17;10.07;;;1.65;;
67762;SDS011;54566;52.022;5.582;2023-08-01T11:48:46;8.00;;;2.13;;
67762;SDS011;54566;52.022;5.582;2023-08-01T11:51:12;6.35;;;2.13;;
67762;SDS011;54566;52.022;5.582;2023-08-01T11:53:38;5.38;;;1.73;;
67762;SDS011;54566;52.022;5.582;2023-08-01T11:56:05;11.73;;;2.17;;
67762;SDS011;54566;52.022;5.582;2023-08-01T11:58:32;6.60;;;1.55;;
67762;SDS011;54566;52.022;5.582;2023-08-01T12:01:09;5.60;;;1.83;;
67762;SDS011;54566;52.022;5.582;2023-08-01T12:03:51;7.35;;;1.98;;
67762;SDS011;54566;52.022;5.582;2023-08-01T12:06:18;7.28;;;2.00;;
67762;SDS011;54566;52.022;5.582;2023-08-01T12:08:46;5.88;;;1.33;;
67762;SDS011;54566;52.022;5.582;2023-08-01T12:11:22;7.75;;;1.70;;
67762;SDS011;54566;52.022;5.582;2023-08-01T12:13:59;12.88;;;1.67;;
67762;SDS011;54566;52.022;5.582;2023-08-01T12:16:25;6.22;;;1.60;;
67762;SDS011;54566;52.022;5.582;2023-08-01T12:18:51;12.48;;;2.00;;
67762;SDS011;54566;52.022;5.582;2023-08-01T12:21:17;7.60;;;1.90;;
67762;SDS011;54566;52.022;5.582;2023-08-01T12:23:43;7.82;;;2.08;;
67762;SDS011;54566;52.022;5.582;2023-08-01T12:26:09;8.32;;;1.70;;
67762;SDS011;54566;52.022;5.582;2023-08-01T12:28:35;9.57;;;2.20;;
67762;SDS011;54566;52.022;5.582;2023-08-01T12:31:01;7.30;;;1.95;;
67762;SDS011;54566;52.022;5.582;2023-08-01T12:33:28;8.95;;;2.10;;
67762;SDS011;54566;52.022;5.582;2023-08-01T12:35:54;7.78;;;1.98;;
67762;SDS011;54566;52.022;5.582;2023-08-01T12:38:20;7.40;;;1.75;;
67762;SDS011;54566;52.022;5.582;2023-08-01T12:40:47;6.97;;;1.92;;
67762;SDS011;54566;52.022;5.582;2023-08-01T12:43:13;7.25;;;2.28;;
67762;SDS011;54566;52.022;5.582;2023-08-01T12:48:07;7.20;;;2.00;;
67762;SDS011;54566;52.022;5.582;2023-08-01T12:50:33;8.57;;;2.38;;
67762;SDS011;54566;52.022;5.582;2023-08-01T12:52:59;9.02;;;2.40;;
67762;SDS011;54566;52.022;5.582;2023-08-01T12:55:25;19.40;;;2.35;;
67762;SDS011;54566;52.022;5.582;2023-08-01T12:57:51;10.25;;;2.15;;
67762;SDS011;54566;52.022;5.582;2023-08-01T13:00:17;8.90;;;2.03;;
67762;SDS011;54566;52.022;5.582;2023-08-01T13:02:43;12.70;;;2.63;;
67762;SDS011;54566;52.022;5.582;2023-08-01T13:05:09;8.35;;;2.38;;
67762;SDS011;54566;52.022;5.582;2023-08-01T13:07:36;9.27;;;2.10;;
67762;SDS011;54566;52.022;5.582;2023-08-01T13:10:02;9.65;;;2.30;;
67762;SDS011;54566;52.022;5.582;2023-08-01T13:12:29;12.63;;;2.00;;
67762;SDS011;54566;52.022;5.582;2023-08-01T13:14:55;7.80;;;1.90;;
67762;SDS011;54566;52.022;5.582;2023-08-01T13:17:20;5.30;;;1.40;;
67762;SDS011;54566;52.022;5.582;2023-08-01T13:19:46;11.05;;;2.10;;
67762;SDS011;54566;52.022;5.582;2023-08-01T13:22:13;13.75;;;1.90;;
67762;SDS011;54566;52.022;5.582;2023-08-01T13:24:39;10.02;;;1.92;;
67762;SDS011;54566;52.022;5.582;2023-08-01T13:27:06;7.80;;;1.98;;
67762;SDS011;54566;52.022;5.582;2023-08-01T13:32:00;8.93;;;1.77;;
67762;SDS011;54566;52.022;5.582;2023-08-01T13:34:26;6.60;;;2.03;;
67762;SDS011;54566;52.022;5.582;2023-08-01T13:36:53;7.63;;;1.70;;
67762;SDS011;54566;52.022;5.582;2023-08-01T13:39:19;9.32;;;1.60;;
67762;SDS011;54566;52.022;5.582;2023-08-01T13:41:45;8.60;;;2.05;;
67762;SDS011;54566;52.022;5.582;2023-08-01T13:44:11;5.25;;;1.40;;
67762;SDS011;54566;52.022;5.582;2023-08-01T13:46:37;6.07;;;1.90;;
67762;SDS011;54566;52.022;5.582;2023-08-01T13:49:03;5.60;;;1.55;;
67762;SDS011;54566;52.022;5.582;2023-08-01T13:51:32;9.52;;;2.03;;
67762;SDS011;54566;52.022;5.582;2023-08-01T13:53:59;12.63;;;2.13;;
67762;SDS011;54566;52.022;5.582;2023-08-01T13:56:25;7.40;;;2.15;;
67762;SDS011;54566;52.022;5.582;2023-08-01T13:58:51;6.25;;;1.75;;
67762;SDS011;54566;52.022;5.582;2023-08-01T14:01:17;9.55;;;1.75;;
67762;SDS011;54566;52.022;5.582;2023-08-01T14:03:44;8.95;;;1.77;;
67762;SDS011;54566;52.022;5.582;2023-08-01T14:06:13;8.93;;;2.15;;
67762;SDS011;54566;52.022;5.582;2023-08-01T14:08:40;5.85;;;1.80;;
67762;SDS011;54566;52.022;5.582;2023-08-01T14:11:07;4.55;;;1.45;;
67762;SDS011;54566;52.022;5.582;2023-08-01T14:13:33;8.65;;;1.98;;
67762;SDS011;54566;52.022;5.582;2023-08-01T14:16:00;6.47;;;2.05;;
67762;SDS011;54566;52.022;5.582;2023-08-01T14:18:26;9.18;;;1.63;;
67762;SDS011;54566;52.022;5.582;2023-08-01T14:20:58;7.47;;;2.00;;
67762;SDS011;54566;52.022;5.582;2023-08-01T14:23:24;8.23;;;1.70;;
67762;SDS011;54566;52.022;5.582;2023-08-01T14:25:50;10.10;;;2.00;;
67762;SDS011;54566;52.022;5.582;2023-08-01T14:28:16;7.82;;;1.70;;
67762;SDS011;54566;52.022;5.582;2023-08-01T14:30:42;11.23;;;1.65;;
67762;SDS011;54566;52.022;5.582;2023-08-01T14:33:08;8.93;;;1.80;;
67762;SDS011;54566;52.022;5.582;2023-08-01T14:35:35;9.20;;;2.70;;
67762;SDS011;54566;52.022;5.582;2023-08-01T14:38:01;10.13;;;1.92;;
67762;SDS011;54566;52.022;5.582;2023-08-01T14:40:28;6.70;;;1.90;;
67762;SDS011;54566;52.022;5.582;2023-08-01T14:42:54;8.27;;;1.83;;
67762;SDS011;54566;52.022;5.582;2023-08-01T14:45:20;10.52;;;2.20;;
67762;SDS011;54566;52.022;5.582;2023-08-01T14:47:46;12.40;;;2.00;;
67762;SDS011;54566;52.022;5.582;2023-08-01T14:50:13;10.48;;;2.38;;